Airport View

Enter AWOS ICAO identifier for current METAR.

ex. KFNL

CYYD 212300Z 18007KT 25SM -RA FEW040 BKN060 OVC080 16/12 A2964 RMK SC2SC4AC2 SLP042 DENSITY ALT 2600FT

21 Sep 2019 23:42

Other Area AWOS: CWPZ - CYXT - CZST

TAF CYYD 211838Z 2119/2206 14008KT P6SM FEW060 TEMPO 2119/2122 P6SM -RA BKN060 FM212200 18008KT P6SM -RA SCT020 OVC050 TEMPO 2122/2206 5SM -RA BR BKN020 OVC040 BECMG 2123/2201 32007KT RMK NXT FCST BY 220100Z